sensor_id;sensor_type;location;lat;lon;timestamp;temperature;humidity
67901;DHT22;54700;51.796;10.956;2024-02-14T00:00:37;5.50;92.40
67901;DHT22;54700;51.796;10.956;2024-02-14T00:03:06;5.50;92.40
67901;DHT22;54700;51.796;10.956;2024-02-14T00:05:33;5.50;92.60
67901;DHT22;54700;51.796;10.956;2024-02-14T00:08:00;5.50;92.70
67901;DHT22;54700;51.796;10.956;2024-02-14T00:10:28;5.50;92.90
67901;DHT22;54700;51.796;10.956;2024-02-14T00:12:57;5.50;92.80
67901;DHT22;54700;51.796;10.956;2024-02-14T00:15:24;5.50;93.10
67901;DHT22;54700;51.796;10.956;2024-02-14T00:17:51;5.50;92.90
67901;DHT22;54700;51.796;10.956;2024-02-14T00:20:18;5.50;93.20
67901;DHT22;54700;51.796;10.956;2024-02-14T00:22:45;5.40;93.30
67901;DHT22;54700;51.796;10.956;2024-02-14T00:25:12;5.40;93.50
67901;DHT22;54700;51.796;10.956;2024-02-14T00:27:39;5.40;93.80
67901;DHT22;54700;51.796;10.956;2024-02-14T00:30:08;5.40;93.70
67901;DHT22;54700;51.796;10.956;2024-02-14T00:32:35;5.40;93.80
67901;DHT22;54700;51.796;10.956;2024-02-14T00:35:05;5.40;93.90
67901;DHT22;54700;51.796;10.956;2024-02-14T00:37:33;5.40;94.00
67901;DHT22;54700;51.796;10.956;2024-02-14T00:40:00;5.40;94.00
67901;DHT22;54700;51.796;10.956;2024-02-14T00:42:27;5.40;94.20
67901;DHT22;54700;51.796;10.956;2024-02-14T00:44:53;5.30;94.00
67901;DHT22;54700;51.796;10.956;2024-02-14T00:47:22;5.30;94.10
67901;DHT22;54700;51.796;10.956;2024-02-14T00:49:48;5.30;94.20
67901;DHT22;54700;51.796;10.956;2024-02-14T00:52:15;5.30;94.20
67901;DHT22;54700;51.796;10.956;2024-02-14T00:54:42;5.30;94.20
67901;DHT22;54700;51.796;10.956;2024-02-14T00:57:09;5.30;94.30
67901;DHT22;54700;51.796;10.956;2024-02-14T00:59:37;5.30;94.40
67901;DHT22;54700;51.796;10.956;2024-02-14T01:02:04;5.30;94.50
67901;DHT22;54700;51.796;10.956;2024-02-14T01:04:32;5.30;94.50
67901;DHT22;54700;51.796;10.956;2024-02-14T01:07:01;5.30;94.60
67901;DHT22;54700;51.796;10.956;2024-02-14T01:09:28;5.30;94.80
67901;DHT22;54700;51.796;10.956;2024-02-14T01:11:55;5.30;94.90
67901;DHT22;54700;51.796;10.956;2024-02-14T01:14:22;5.30;95.00
67901;DHT22;54700;51.796;10.956;2024-02-14T01:16:49;5.20;94.90
67901;DHT22;54700;51.796;10.956;2024-02-14T01:19:16;5.30;95.00
67901;DHT22;54700;51.796;10.956;2024-02-14T01:21:45;5.30;95.00
67901;DHT22;54700;51.796;10.956;2024-02-14T01:24:13;5.30;94.80
67901;DHT22;54700;51.796;10.956;2024-02-14T01:26:40;5.30;94.80
67901;DHT22;54700;51.796;10.956;2024-02-14T01:29:07;5.30;95.10
67901;DHT22;54700;51.796;10.956;2024-02-14T01:31:34;5.30;95.10
67901;DHT22;54700;51.796;10.956;2024-02-14T01:34:01;5.20;95.40
67901;DHT22;54700;51.796;10.956;2024-02-14T01:36:28;5.20;95.70
67901;DHT22;54700;51.796;10.956;2024-02-14T01:38:56;5.20;96.00
67901;DHT22;54700;51.796;10.956;2024-02-14T01:41:23;5.10;96.30
67901;DHT22;54700;51.796;10.956;2024-02-14T01:43:50;5.10;96.50
67901;DHT22;54700;51.796;10.956;2024-02-14T01:46:17;5.10;96.80
67901;DHT22;54700;51.796;10.956;2024-02-14T01:48:44;5.10;97.10
67901;DHT22;54700;51.796;10.956;2024-02-14T01:51:12;5.10;97.00
67901;DHT22;54700;51.796;10.956;2024-02-14T01:53:40;5.00;97.20
67901;DHT22;54700;51.796;10.956;2024-02-14T01:56:09;5.10;97.70
67901;DHT22;54700;51.796;10.956;2024-02-14T01:58:36;5.10;97.70
67901;DHT22;54700;51.796;10.956;2024-02-14T02:01:04;5.20;97.20
67901;DHT22;54700;51.796;10.956;2024-02-14T02:03:31;5.20;97.20
67901;DHT22;54700;51.796;10.956;2024-02-14T02:06:01;5.20;97.00
67901;DHT22;54700;51.796;10.956;2024-02-14T02:08:28;5.20;97.20
67901;DHT22;54700;51.796;10.956;2024-02-14T02:10:54;5.20;97.40
67901;DHT22;54700;51.796;10.956;2024-02-14T02:13:23;5.20;97.30
67901;DHT22;54700;51.796;10.956;2024-02-14T02:15:51;5.30;97.30
67901;DHT22;54700;51.796;10.956;2024-02-14T02:18:18;5.40;96.90
67901;DHT22;54700;51.796;10.956;2024-02-14T02:20:45;5.50;96.30
67901;DHT22;54700;51.796;10.956;2024-02-14T02:23:13;5.60;96.00
67901;DHT22;54700;51.796;10.956;2024-02-14T02:25:41;5.60;95.60
67901;DHT22;54700;51.796;10.956;2024-02-14T02:28:07;5.70;95.10
67901;DHT22;54700;51.796;10.956;2024-02-14T02:30:35;5.70;94.90
67901;DHT22;54700;51.796;10.956;2024-02-14T02:33:02;5.80;94.60
67901;DHT22;54700;51.796;10.956;2024-02-14T02:35:29;5.80;94.50
67901;DHT22;54700;51.796;10.956;2024-02-14T02:37:56;5.70;94.40
67901;DHT22;54700;51.796;10.956;2024-02-14T02:40:24;5.80;94.10
67901;DHT22;54700;51.796;10.956;2024-02-14T02:42:52;5.80;94.20
67901;DHT22;54700;51.796;10.956;2024-02-14T02:45:19;5.80;94.00
67901;DHT22;54700;51.796;10.956;2024-02-14T02:47:46;5.80;94.10
67901;DHT22;54700;51.796;10.956;2024-02-14T02:50:13;5.80;94.30
67901;DHT22;54700;51.796;10.956;2024-02-14T02:52:40;5.80;94.00
67901;DHT22;54700;51.796;10.956;2024-02-14T02:55:07;5.80;94.10
67901;DHT22;54700;51.796;10.956;2024-02-14T02:57:35;5.80;94.10
67901;DHT22;54700;51.796;10.956;2024-02-14T03:00:06;5.90;93.90
67901;DHT22;54700;51.796;10.956;2024-02-14T03:02:34;5.90;94.00
67901;DHT22;54700;51.796;10.956;2024-02-14T03:05:04;6.00;93.80
67901;DHT22;54700;51.796;10.956;2024-02-14T03:07:31;6.00;94.00
67901;DHT22;54700;51.796;10.956;2024-02-14T03:09:58;6.00;93.80
67901;DHT22;54700;51.796;10.956;2024-02-14T03:12:25;6.00;93.70
67901;DHT22;54700;51.796;10.956;2024-02-14T03:14:57;6.00;93.70
67901;DHT22;54700;51.796;10.956;2024-02-14T03:17:24;6.00;93.60
67901;DHT22;54700;51.796;10.956;2024-02-14T03:19:51;6.00;93.60
67901;DHT22;54700;51.796;10.956;2024-02-14T03:22:18;6.10;93.60
67901;DHT22;54700;51.796;10.956;2024-02-14T03:24:45;6.10;93.60
67901;DHT22;54700;51.796;10.956;2024-02-14T03:27:12;6.10;93.60
67901;DHT22;54700;51.796;10.956;2024-02-14T03:29:39;6.10;93.80
67901;DHT22;54700;51.796;10.956;2024-02-14T03:32:07;6.10;94.10
67901;DHT22;54700;51.796;10.956;2024-02-14T03:34:34;6.10;94.30
67901;DHT22;54700;51.796;10.956;2024-02-14T03:37:01;6.10;94.50
67901;DHT22;54700;51.796;10.956;2024-02-14T03:39:29;6.20;94.50
67901;DHT22;54700;51.796;10.956;2024-02-14T03:41:57;6.20;94.70
67901;DHT22;54700;51.796;10.956;2024-02-14T03:44:26;6.30;94.60
67901;DHT22;54700;51.796;10.956;2024-02-14T03:46:53;6.30;94.50
67901;DHT22;54700;51.796;10.956;2024-02-14T03:49:21;6.40;94.20
67901;DHT22;54700;51.796;10.956;2024-02-14T03:51:51;6.40;94.20
67901;DHT22;54700;51.796;10.956;2024-02-14T03:54:20;6.40;94.30
67901;DHT22;54700;51.796;10.956;2024-02-14T03:56:47;6.40;94.10
67901;DHT22;54700;51.796;10.956;2024-02-14T03:59:13;6.40;94.20
67901;DHT22;54700;51.796;10.956;2024-02-14T04:01:43;6.40;94.20
67901;DHT22;54700;51.796;10.956;2024-02-14T04:04:10;6.40;94.10
67901;DHT22;54700;51.796;10.956;2024-02-14T04:06:39;6.40;94.30
67901;DHT22;54700;51.796;10.956;2024-02-14T04:09:07;6.30;94.40
67901;DHT22;54700;51.796;10.956;2024-02-14T04:11:34;6.30;94.60
67901;DHT22;54700;51.796;10.956;2024-02-14T04:14:01;6.30;94.80
67901;DHT22;54700;51.796;10.956;2024-02-14T04:16:28;6.30;94.80
67901;DHT22;54700;51.796;10.956;2024-02-14T04:18:55;6.30;94.90
67901;DHT22;54700;51.796;10.956;2024-02-14T04:21:22;6.30;94.80
67901;DHT22;54700;51.796;10.956;2024-02-14T04:23:50;6.30;94.70
67901;DHT22;54700;51.796;10.956;2024-02-14T04:26:20;6.30;94.70
67901;DHT22;54700;51.796;10.956;2024-02-14T04:28:47;6.30;94.90
67901;DHT22;54700;51.796;10.956;2024-02-14T04:31:14;6.30;94.80
67901;DHT22;54700;51.796;10.956;2024-02-14T04:33:41;6.40;94.40
67901;DHT22;54700;51.796;10.956;2024-02-14T04:36:08;6.40;94.10
67901;DHT22;54700;51.796;10.956;2024-02-14T04:38:38;6.50;93.90
67901;DHT22;54700;51.796;10.956;2024-02-14T04:41:07;6.50;94.10
67901;DHT22;54700;51.796;10.956;2024-02-14T04:43:35;6.50;93.80
67901;DHT22;54700;51.796;10.956;2024-02-14T04:46:02;6.50;93.60
67901;DHT22;54700;51.796;10.956;2024-02-14T04:48:32;6.50;93.90
67901;DHT22;54700;51.796;10.956;2024-02-14T04:50:59;6.60;94.00
67901;DHT22;54700;51.796;10.956;2024-02-14T04:53:26;6.50;94.30
67901;DHT22;54700;51.796;10.956;2024-02-14T04:55:52;6.50;94.70
67901;DHT22;54700;51.796;10.956;2024-02-14T04:58:21;6.50;95.10
67901;DHT22;54700;51.796;10.956;2024-02-14T05:00:47;6.50;95.60
67901;DHT22;54700;51.796;10.956;2024-02-14T05:03:14;6.50;96.20
67901;DHT22;54700;51.796;10.956;2024-02-14T05:05:42;6.50;96.60
67901;DHT22;54700;51.796;10.956;2024-02-14T05:08:09;6.40;97.10
67901;DHT22;54700;51.796;10.956;2024-02-14T05:10:36;6.40;97.50
67901;DHT22;54700;51.796;10.956;2024-02-14T05:13:03;6.50;97.70
67901;DHT22;54700;51.796;10.956;2024-02-14T05:15:32;6.40;97.80
67901;DHT22;54700;51.796;10.956;2024-02-14T05:18:00;6.50;97.70
67901;DHT22;54700;51.796;10.956;2024-02-14T05:20:27;6.50;97.70
67901;DHT22;54700;51.796;10.956;2024-02-14T05:22:54;6.50;97.70
67901;DHT22;54700;51.796;10.956;2024-02-14T05:25:21;6.50;97.50
67901;DHT22;54700;51.796;10.956;2024-02-14T05:27:48;6.50;97.50
67901;DHT22;54700;51.796;10.956;2024-02-14T05:30:15;6.60;97.10
67901;DHT22;54700;51.796;10.956;2024-02-14T05:32:43;6.60;97.10
67901;DHT22;54700;51.796;10.956;2024-02-14T05:35:10;6.60;97.00
67901;DHT22;54700;51.796;10.956;2024-02-14T05:37:40;6.60;96.80
67901;DHT22;54700;51.796;10.956;2024-02-14T05:40:07;6.60;96.90
67901;DHT22;54700;51.796;10.956;2024-02-14T05:42:37;6.60;96.90
67901;DHT22;54700;51.796;10.956;2024-02-14T05:45:04;6.60;97.00
67901;DHT22;54700;51.796;10.956;2024-02-14T05:47:35;6.60;97.00
67901;DHT22;54700;51.796;10.956;2024-02-14T05:50:03;6.50;97.10
67901;DHT22;54700;51.796;10.956;2024-02-14T05:52:31;6.50;97.10
67901;DHT22;54700;51.796;10.956;2024-02-14T05:54:58;6.60;97.10
67901;DHT22;54700;51.796;10.956;2024-02-14T05:57:25;6.60;97.10
67901;DHT22;54700;51.796;10.956;2024-02-14T05:59:52;6.60;97.30
67901;DHT22;54700;51.796;10.956;2024-02-14T06:02:19;6.60;97.20
67901;DHT22;54700;51.796;10.956;2024-02-14T06:04:47;6.70;97.40
67901;DHT22;54700;51.796;10.956;2024-02-14T06:07:15;6.60;97.80
67901;DHT22;54700;51.796;10.956;2024-02-14T06:09:42;6.70;98.40
67901;DHT22;54700;51.796;10.956;2024-02-14T06:12:09;6.70;99.00
67901;DHT22;54700;51.796;10.956;2024-02-14T06:14:36;6.60;99.40
67901;DHT22;54700;51.796;10.956;2024-02-14T06:17:03;6.60;99.90
67901;DHT22;54700;51.796;10.956;2024-02-14T06:19:30;6.60;99.90
67901;DHT22;54700;51.796;10.956;2024-02-14T06:21:58;6.50;99.90
67901;DHT22;54700;51.796;10.956;2024-02-14T06:24:27;6.60;99.90
67901;DHT22;54700;51.796;10.956;2024-02-14T06:26:54;6.60;99.90
67901;DHT22;54700;51.796;10.956;2024-02-14T06:29:20;6.60;99.90
67901;DHT22;54700;51.796;10.956;2024-02-14T06:31:47;6.60;99.90
67901;DHT22;54700;51.796;10.956;2024-02-14T06:34:14;6.60;99.90
67901;DHT22;54700;51.796;10.956;2024-02-14T06:36:41;6.60;99.90
67901;DHT22;54700;51.796;10.956;2024-02-14T06:39:08;6.60;99.90
67901;DHT22;54700;51.796;10.956;2024-02-14T06:41:36;6.60;99.90
67901;DHT22;54700;51.796;10.956;2024-02-14T06:44:03;6.60;99.90
67901;DHT22;54700;51.796;10.956;2024-02-14T06:46:31;6.60;99.90
67901;DHT22;54700;51.796;10.956;2024-02-14T06:48:58;6.60;99.90
67901;DHT22;54700;51.796;10.956;2024-02-14T06:51:24;6.60;99.90
67901;DHT22;54700;51.796;10.956;2024-02-14T06:53:51;6.60;99.90
67901;DHT22;54700;51.796;10.956;2024-02-14T06:56:18;6.60;99.90
67901;DHT22;54700;51.796;10.956;2024-02-14T06:58:48;6.60;99.90
67901;DHT22;54700;51.796;10.956;2024-02-14T07:01:18;6.60;99.90
67901;DHT22;54700;51.796;10.956;2024-02-14T07:03:47;6.60;99.90
67901;DHT22;54700;51.796;10.956;2024-02-14T07:06:15;6.70;99.90
67901;DHT22;54700;51.796;10.956;2024-02-14T07:08:42;6.70;99.90
67901;DHT22;54700;51.796;10.956;2024-02-14T07:11:09;6.70;99.90
67901;DHT22;54700;51.796;10.956;2024-02-14T07:13:36;6.70;99.90
67901;DHT22;54700;51.796;10.956;2024-02-14T07:16:07;6.80;99.90
67901;DHT22;54700;51.796;10.956;2024-02-14T07:18:34;6.80;99.90
67901;DHT22;54700;51.796;10.956;2024-02-14T07:21:02;6.80;99.90
67901;DHT22;54700;51.796;10.956;2024-02-14T07:23:31;6.90;99.90
67901;DHT22;54700;51.796;10.956;2024-02-14T07:25:59;6.90;99.90
67901;DHT22;54700;51.796;10.956;2024-02-14T07:28:27;6.90;99.90
67901;DHT22;54700;51.796;10.956;2024-02-14T07:30:54;6.90;99.90
67901;DHT22;54700;51.796;10.956;2024-02-14T07:33:25;6.90;99.90
67901;DHT22;54700;51.796;10.956;2024-02-14T07:35:52;6.90;99.90
67901;DHT22;54700;51.796;10.956;2024-02-14T07:38:20;6.90;99.90
67901;DHT22;54700;51.796;10.956;2024-02-14T07:40:48;6.90;99.90
67901;DHT22;54700;51.796;10.956;2024-02-14T07:43:15;6.90;99.90
67901;DHT22;54700;51.796;10.956;2024-02-14T07:45:42;6.90;99.90
67901;DHT22;54700;51.796;10.956;2024-02-14T07:48:09;6.90;99.90
67901;DHT22;54700;51.796;10.956;2024-02-14T07:50:39;6.90;99.90
67901;DHT22;54700;51.796;10.956;2024-02-14T07:53:06;7.00;99.90
67901;DHT22;54700;51.796;10.956;2024-02-14T07:55:38;7.00;99.90
67901;DHT22;54700;51.796;10.956;2024-02-14T07:58:05;7.10;99.90
67901;DHT22;54700;51.796;10.956;2024-02-14T08:00:32;7.10;99.90
67901;DHT22;54700;51.796;10.956;2024-02-14T08:02:59;7.10;99.90
67901;DHT22;54700;51.796;10.956;2024-02-14T08:05:28;7.10;99.90
67901;DHT22;54700;51.796;10.956;2024-02-14T08:07:57;7.10;99.90
67901;DHT22;54700;51.796;10.956;2024-02-14T08:10:25;7.10;99.90
67901;DHT22;54700;51.796;10.956;2024-02-14T08:12:52;7.10;99.90
67901;DHT22;54700;51.796;10.956;2024-02-14T08:15:20;7.10;99.90
67901;DHT22;54700;51.796;10.956;2024-02-14T08:17:47;7.10;99.90
67901;DHT22;54700;51.796;10.956;2024-02-14T08:20:15;7.20;99.90
67901;DHT22;54700;51.796;10.956;2024-02-14T08:22:43;7.20;99.90
67901;DHT22;54700;51.796;10.956;2024-02-14T08:25:11;7.20;99.90
67901;DHT22;54700;51.796;10.956;2024-02-14T08:27:39;7.20;99.90
67901;DHT22;54700;51.796;10.956;2024-02-14T08:30:07;7.30;99.90
67901;DHT22;54700;51.796;10.956;2024-02-14T08:32:34;7.30;99.90
67901;DHT22;54700;51.796;10.956;2024-02-14T08:35:01;7.40;99.90
67901;DHT22;54700;51.796;10.956;2024-02-14T08:37:28;7.40;99.90
67901;DHT22;54700;51.796;10.956;2024-02-14T08:39:54;7.40;99.90
67901;DHT22;54700;51.796;10.956;2024-02-14T08:42:24;7.50;99.90
67901;DHT22;54700;51.796;10.956;2024-02-14T08:44:51;7.50;99.90
67901;DHT22;54700;51.796;10.956;2024-02-14T08:47:18;7.50;99.90
67901;DHT22;54700;51.796;10.956;2024-02-14T08:49:45;7.60;99.90
67901;DHT22;54700;51.796;10.956;2024-02-14T08:52:12;7.60;99.90
67901;DHT22;54700;51.796;10.956;2024-02-14T08:54:39;7.60;99.90
67901;DHT22;54700;51.796;10.956;2024-02-14T08:57:07;7.60;99.90
67901;DHT22;54700;51.796;10.956;2024-02-14T08:59:35;7.70;99.90
67901;DHT22;54700;51.796;10.956;2024-02-14T09:02:06;7.60;99.90
67901;DHT22;54700;51.796;10.956;2024-02-14T09:04:33;7.60;99.90
67901;DHT22;54700;51.796;10.956;2024-02-14T09:07:00;7.60;99.90
67901;DHT22;54700;51.796;10.956;2024-02-14T09:09:29;7.60;99.90
67901;DHT22;54700;51.796;10.956;2024-02-14T09:11:56;7.60;99.90
67901;DHT22;54700;51.796;10.956;2024-02-14T09:14:23;7.60;99.90
67901;DHT22;54700;51.796;10.956;2024-02-14T09:16:51;7.60;99.90
67901;DHT22;54700;51.796;10.956;2024-02-14T09:19:18;7.60;99.90
67901;DHT22;54700;51.796;10.956;2024-02-14T09:21:45;7.60;99.90
67901;DHT22;54700;51.796;10.956;2024-02-14T09:24:12;7.60;99.90
67901;DHT22;54700;51.796;10.956;2024-02-14T09:26:39;7.60;99.90
67901;DHT22;54700;51.796;10.956;2024-02-14T09:29:08;7.70;99.90
67901;DHT22;54700;51.796;10.956;2024-02-14T09:31:36;7.70;99.90
67901;DHT22;54700;51.796;10.956;2024-02-14T09:34:04;7.70;99.90
67901;DHT22;54700;51.796;10.956;2024-02-14T09:36:31;7.70;99.90
67901;DHT22;54700;51.796;10.956;2024-02-14T09:39:00;7.70;99.90
67901;DHT22;54700;51.796;10.956;2024-02-14T09:41:28;7.80;99.90
67901;DHT22;54700;51.796;10.956;2024-02-14T09:43:58;7.80;99.90
67901;DHT22;54700;51.796;10.956;2024-02-14T09:46:28;7.90;99.90
67901;DHT22;54700;51.796;10.956;2024-02-14T09:48:56;7.90;99.90
67901;DHT22;54700;51.796;10.956;2024-02-14T09:51:26;8.00;99.90
67901;DHT22;54700;51.796;10.956;2024-02-14T09:53:54;8.00;99.90
67901;DHT22;54700;51.796;10.956;2024-02-14T09:56:21;8.10;99.90
67901;DHT22;54700;51.796;10.956;2024-02-14T09:58:54;8.10;99.90
67901;DHT22;54700;51.796;10.956;2024-02-14T10:01:22;8.10;99.90
67901;DHT22;54700;51.796;10.956;2024-02-14T10:03:56;8.20;99.90
67901;DHT22;54700;51.796;10.956;2024-02-14T10:06:23;8.30;99.90
67901;DHT22;54700;51.796;10.956;2024-02-14T10:08:52;8.30;99.90
67901;DHT22;54700;51.796;10.956;2024-02-14T10:11:20;8.40;99.90
67901;DHT22;54700;51.796;10.956;2024-02-14T10:13:49;8.50;99.90
67901;DHT22;54700;51.796;10.956;2024-02-14T10:16:18;8.60;99.90
67901;DHT22;54700;51.796;10.956;2024-02-14T10:18:45;8.60;99.90
67901;DHT22;54700;51.796;10.956;2024-02-14T10:21:14;8.60;99.90
67901;DHT22;54700;51.796;10.956;2024-02-14T10:23:45;8.50;99.90
67901;DHT22;54700;51.796;10.956;2024-02-14T10:26:16;8.50;99.90
67901;DHT22;54700;51.796;10.956;2024-02-14T10:28:46;8.50;99.90
67901;DHT22;54700;51.796;10.956;2024-02-14T10:31:15;8.50;99.90
67901;DHT22;54700;51.796;10.956;2024-02-14T10:33:42;8.50;99.90
67901;DHT22;54700;51.796;10.956;2024-02-14T10:36:20;8.40;99.90
67901;DHT22;54700;51.796;10.956;2024-02-14T10:38:48;8.40;99.90
67901;DHT22;54700;51.796;10.956;2024-02-14T10:41:18;8.50;99.90
67901;DHT22;54700;51.796;10.956;2024-02-14T10:43:48;8.50;99.90
67901;DHT22;54700;51.796;10.956;2024-02-14T10:46:19;8.50;99.90
67901;DHT22;54700;51.796;10.956;2024-02-14T10:48:48;8.60;99.90
67901;DHT22;54700;51.796;10.956;2024-02-14T10:51:20;8.70;99.90
67901;DHT22;54700;51.796;10.956;2024-02-14T10:53:49;8.70;99.90
67901;DHT22;54700;51.796;10.956;2024-02-14T10:56:20;8.80;99.90
67901;DHT22;54700;51.796;10.956;2024-02-14T10:58:47;8.90;99.90
67901;DHT22;54700;51.796;10.956;2024-02-14T11:01:15;9.00;99.90
67901;DHT22;54700;51.796;10.956;2024-02-14T11:03:43;9.00;99.90
67901;DHT22;54700;51.796;10.956;2024-02-14T11:06:30;9.10;99.90
67901;DHT22;54700;51.796;10.956;2024-02-14T11:08:57;9.10;99.90
67901;DHT22;54700;51.796;10.956;2024-02-14T11:11:33;9.20;99.90
67901;DHT22;54700;51.796;10.956;2024-02-14T11:14:00;9.20;99.90
67901;DHT22;54700;51.796;10.956;2024-02-14T11:16:27;9.20;99.90
67901;DHT22;54700;51.796;10.956;2024-02-14T11:19:05;9.20;99.90
67901;DHT22;54700;51.796;10.956;2024-02-14T11:21:37;9.30;99.90
67901;DHT22;54700;51.796;10.956;2024-02-14T11:24:09;9.30;99.90
67901;DHT22;54700;51.796;10.956;2024-02-14T11:26:45;9.20;99.90
67901;DHT22;54700;51.796;10.956;2024-02-14T11:29:14;9.20;99.90
67901;DHT22;54700;51.796;10.956;2024-02-14T11:31:42;9.20;99.90
67901;DHT22;54700;51.796;10.956;2024-02-14T11:34:11;9.30;99.90
67901;DHT22;54700;51.796;10.956;2024-02-14T11:36:39;9.30;99.90
67901;DHT22;54700;51.796;10.956;2024-02-14T11:39:08;9.30;99.90
67901;DHT22;54700;51.796;10.956;2024-02-14T11:41:37;9.40;99.90
67901;DHT22;54700;51.796;10.956;2024-02-14T11:44:08;9.40;99.90
67901;DHT22;54700;51.796;10.956;2024-02-14T11:46:37;9.50;99.90
67901;DHT22;54700;51.796;10.956;2024-02-14T11:49:04;9.50;99.90
67901;DHT22;54700;51.796;10.956;2024-02-14T11:51:33;9.60;99.90
67901;DHT22;54700;51.796;10.956;2024-02-14T11:54:01;9.70;99.90
67901;DHT22;54700;51.796;10.956;2024-02-14T11:56:30;9.80;99.90
67901;DHT22;54700;51.796;10.956;2024-02-14T11:58:59;9.80;99.90
67901;DHT22;54700;51.796;10.956;2024-02-14T12:01:31;9.80;99.90
67901;DHT22;54700;51.796;10.956;2024-02-14T12:04:04;9.80;99.90
67901;DHT22;54700;51.796;10.956;2024-02-14T12:06:38;9.90;99.90
67901;DHT22;54700;51.796;10.956;2024-02-14T12:09:07;9.80;99.90
67901;DHT22;54700;51.796;10.956;2024-02-14T12:11:35;9.80;99.90
67901;DHT22;54700;51.796;10.956;2024-02-14T12:14:03;9.80;99.90
67901;DHT22;54700;51.796;10.956;2024-02-14T12:16:33;10.00;99.90
67901;DHT22;54700;51.796;10.956;2024-02-14T12:19:03;10.20;99.90
67901;DHT22;54700;51.796;10.956;2024-02-14T12:21:34;10.30;99.90
67901;DHT22;54700;51.796;10.956;2024-02-14T12:24:01;10.40;99.90
67901;DHT22;54700;51.796;10.956;2024-02-14T12:26:31;10.40;99.90
67901;DHT22;54700;51.796;10.956;2024-02-14T12:29:00;10.40;99.60
67901;DHT22;54700;51.796;10.956;2024-02-14T12:31:29;10.40;99.90
67901;DHT22;54700;51.796;10.956;2024-02-14T12:33:58;10.40;99.90
67901;DHT22;54700;51.796;10.956;2024-02-14T12:36:27;10.30;99.90
67901;DHT22;54700;51.796;10.956;2024-02-14T12:38:54;10.30;99.90
67901;DHT22;54700;51.796;10.956;2024-02-14T12:41:23;10.30;99.90
67901;DHT22;54700;51.796;10.956;2024-02-14T12:43:54;10.30;99.90
67901;DHT22;54700;51.796;10.956;2024-02-14T12:46:21;10.30;99.90
67901;DHT22;54700;51.796;10.956;2024-02-14T12:48:48;10.20;99.90
67901;DHT22;54700;51.796;10.956;2024-02-14T12:51:19;10.30;99.90
67901;DHT22;54700;51.796;10.956;2024-02-14T12:53:47;10.30;99.90
67901;DHT22;54700;51.796;10.956;2024-02-14T12:56:15;10.30;99.90
67901;DHT22;54700;51.796;10.956;2024-02-14T12:58:46;10.30;99.90
67901;DHT22;54700;51.796;10.956;2024-02-14T13:01:14;10.30;99.90
67901;DHT22;54700;51.796;10.956;2024-02-14T13:03:43;10.20;99.90
67901;DHT22;54700;51.796;10.956;2024-02-14T13:06:11;10.30;99.90
67901;DHT22;54700;51.796;10.956;2024-02-14T13:08:45;10.20;99.90
67901;DHT22;54700;51.796;10.956;2024-02-14T13:11:12;10.20;99.90
67901;DHT22;54700;51.796;10.956;2024-02-14T13:13:41;10.20;99.90
67901;DHT22;54700;51.796;10.956;2024-02-14T13:16:08;10.20;99.90
67901;DHT22;54700;51.796;10.956;2024-02-14T13:18:36;10.30;99.90
67901;DHT22;54700;51.796;10.956;2024-02-14T13:21:05;10.30;99.90
67901;DHT22;54700;51.796;10.956;2024-02-14T13:23:33;10.30;99.90
67901;DHT22;54700;51.796;10.956;2024-02-14T13:26:01;10.30;99.90
67901;DHT22;54700;51.796;10.956;2024-02-14T13:28:29;10.30;99.90
67901;DHT22;54700;51.796;10.956;2024-02-14T13:30:59;10.30;99.90
67901;DHT22;54700;51.796;10.956;2024-02-14T13:33:26;10.20;99.90
67901;DHT22;54700;51.796;10.956;2024-02-14T13:35:55;10.20;99.90
67901;DHT22;54700;51.796;10.956;2024-02-14T13:38:22;10.20;99.90
67901;DHT22;54700;51.796;10.956;2024-02-14T13:40:49;10.10;99.90
67901;DHT22;54700;51.796;10.956;2024-02-14T13:43:20;10.10;99.90
67901;DHT22;54700;51.796;10.956;2024-02-14T13:45:47;10.10;99.90
67901;DHT22;54700;51.796;10.956;2024-02-14T13:48:15;10.10;99.90
67901;DHT22;54700;51.796;10.956;2024-02-14T13:50:42;10.10;99.90
67901;DHT22;54700;51.796;10.956;2024-02-14T13:53:09;10.10;99.90
67901;DHT22;54700;51.796;10.956;2024-02-14T13:55:36;10.00;99.90
67901;DHT22;54700;51.796;10.956;2024-02-14T13:58:04;10.00;99.90
67901;DHT22;54700;51.796;10.956;2024-02-14T14:00:32;10.00;99.90
67901;DHT22;54700;51.796;10.956;2024-02-14T14:02:59;10.10;99.90
67901;DHT22;54700;51.796;10.956;2024-02-14T14:05:29;10.00;99.90
67901;DHT22;54700;51.796;10.956;2024-02-14T14:07:56;10.10;99.90
67901;DHT22;54700;51.796;10.956;2024-02-14T14:10:24;10.10;99.90
67901;DHT22;54700;51.796;10.956;2024-02-14T14:12:52;10.10;99.90
67901;DHT22;54700;51.796;10.956;2024-02-14T14:15:19;10.10;99.90
67901;DHT22;54700;51.796;10.956;2024-02-14T14:17:49;10.10;99.90
67901;DHT22;54700;51.796;10.956;2024-02-14T14:20:16;10.10;99.90
67901;DHT22;54700;51.796;10.956;2024-02-14T14:22:43;10.10;99.90
67901;DHT22;54700;51.796;10.956;2024-02-14T14:25:10;10.10;99.90
67901;DHT22;54700;51.796;10.956;2024-02-14T14:27:37;10.10;99.90
67901;DHT22;54700;51.796;10.956;2024-02-14T14:30:04;10.20;99.90
67901;DHT22;54700;51.796;10.956;2024-02-14T14:32:32;10.20;99.90
67901;DHT22;54700;51.796;10.956;2024-02-14T14:35:00;10.20;99.90
67901;DHT22;54700;51.796;10.956;2024-02-14T14:37:27;10.30;99.90
67901;DHT22;54700;51.796;10.956;2024-02-14T14:39:57;10.30;99.90
67901;DHT22;54700;51.796;10.956;2024-02-14T14:42:29;10.30;99.90
67901;DHT22;54700;51.796;10.956;2024-02-14T14:44:56;10.30;99.90
67901;DHT22;54700;51.796;10.956;2024-02-14T14:47:23;10.30;99.90
67901;DHT22;54700;51.796;10.956;2024-02-14T14:49:49;10.30;99.90
67901;DHT22;54700;51.796;10.956;2024-02-14T14:52:18;10.20;99.90
67901;DHT22;54700;51.796;10.956;2024-02-14T14:54:45;10.20;99.90
67901;DHT22;54700;51.796;10.956;2024-02-14T14:57:11;10.20;99.90
67901;DHT22;54700;51.796;10.956;2024-02-14T14:59:40;10.30;99.90
67901;DHT22;54700;51.796;10.956;2024-02-14T15:02:08;10.20;99.90
67901;DHT22;54700;51.796;10.956;2024-02-14T15:04:35;10.30;99.90
67901;DHT22;54700;51.796;10.956;2024-02-14T15:07:05;10.30;99.90
67901;DHT22;54700;51.796;10.956;2024-02-14T15:09:33;10.30;99.90
67901;DHT22;54700;51.796;10.956;2024-02-14T15:12:00;10.40;99.90
67901;DHT22;54700;51.796;10.956;2024-02-14T15:14:27;10.40;99.90
67901;DHT22;54700;51.796;10.956;2024-02-14T15:16:54;10.40;99.90
67901;DHT22;54700;51.796;10.956;2024-02-14T15:19:21;10.30;99.90
67901;DHT22;54700;51.796;10.956;2024-02-14T15:21:52;10.30;99.90
67901;DHT22;54700;51.796;10.956;2024-02-14T15:24:19;10.30;99.90
67901;DHT22;54700;51.796;10.956;2024-02-14T15:26:47;10.30;99.90
67901;DHT22;54700;51.796;10.956;2024-02-14T15:29:25;10.20;99.90
67901;DHT22;54700;51.796;10.956;2024-02-14T15:32:10;10.40;99.90